Latest Weather Observations for Cape Grim

IDT60801

Issued at 10:05 pm EST Wednesday 1 October 2014 (issued every 30 minutes, with the page automatically refreshed every 10 minutes)

About weather observations | Map of weather stations | Latest weather observations for TAS | Other Formats
Station Details ID: 091331 Name: CAPE GRIM Lat: -40.68 Lon: 144.69 Height: 86.0 m
Data from the previous 72 hours. | See also: Recent months at Cape Grim
Date/Time
EST
Temp
°C
App
Temp
°C
Dew
Point
Rel
Hum
%
Delta-T
°C
Wind Press
QNH
hPa
Press
MSL
hPa
Rain
since 9 am
mm
Dir
 
Spd
km/h
Gust
km/h
Spd
kts
Gust
kts
01/10:04pm 11.8 5.0 9.4 85 1.2 W 35 54 19 29 1020.1 1020.1 0.0
01/10:00pm 12.2 5.5 9.6 84 1.3 W 35 50 19 27 1020.0 1020.0 0.0
01/09:30pm 11.8 5.0 9.2 84 1.3 W 35 54 19 29 1020.1 1020.1 0.0
01/09:00pm 11.6 4.6 9.9 89 0.9 W 37 59 20 32 1020.2 1020.2 0.0
01/08:35pm 11.7 5.0 9.6 87 1.1 W 35 54 19 29 1020.3 1020.3 0.0
01/08:30pm 11.6 4.5 9.5 87 1.1 W 37 54 20 29 1020.4 1020.4 0.0
01/08:03pm 11.8 4.3 9.4 85 1.2 W 39 57 21 31 1020.4 1020.4 0.0
01/08:00pm 11.9 4.0 9.3 84 1.3 W 41 57 22 31 1020.4 1020.4 0.0
01/07:51pm 11.8 4.2 9.2 84 1.3 W 39 57 21 31 1020.4 1020.4 0.0
01/07:30pm 11.6 4.0 9.2 85 1.2 W 39 52 21 28 1020.4 1020.4 0.0
01/07:03pm 11.6 5.2 9.2 85 1.2 W 33 52 18 28 1020.4 1020.4 0.0
01/07:00pm 11.5 4.7 9.1 85 1.2 W 35 48 19 26 1020.4 1020.4 0.0
01/06:30pm 11.8 4.8 8.3 79 1.7 W 35 54 19 29 1020.3 1020.3 0.0
01/06:06pm 11.7 5.4 7.4 75 2.1 W 30 48 16 26 1020.2 1020.2 0.0
01/06:00pm 11.7 4.8 7.2 74 2.2 W 33 48 18 26 1020.1 1020.1 0.0
01/05:34pm 11.6 4.6 6.9 73 2.3 W 33 54 18 29 1020.1 1020.1 0.0
01/05:30pm 11.7 4.7 7.0 73 2.3 W 33 50 18 27 1020.1 1020.1 0.0
01/05:09pm 11.6 4.6 6.9 73 2.3 W 33 57 18 31 1020.0 1020.0 0.0
01/05:00pm 11.6 4.6 6.9 73 2.2 W 33 44 18 24 1020.0 1020.0 0.0
01/04:31pm 11.6 5.5 6.5 71 2.4 WSW 28 46 15 25 1020.0 1020.0 0.0
01/04:30pm 11.6 5.5 6.5 71 2.4 WSW 28 43 15 23 1020.0 1020.0 0.0
01/04:00pm 11.8 4.7 5.7 66 2.8 WSW 32 54 17 29 1020.1 1020.1 0.0
01/03:30pm 11.6 3.9 5.5 66 2.8 WSW 35 54 19 29 1020.2 1020.2 0.0
01/03:00pm 11.5 4.7 5.2 65 2.9 W 30 54 16 29 1020.0 1020.0 0.0
01/02:40pm 11.2 4.8 5.1 66 2.8 WSW 28 48 15 26 1019.9 1019.9 0.0
01/02:30pm 11.4 5.5 5.9 69 2.6 WSW 26 43 14 23 1019.9 1019.9 0.0
01/02:00pm 11.4 5.4 5.5 67 2.7 WSW 26 50 14 27 1020.0 1020.0 0.0
01/01:33pm 11.1 4.3 5.0 66 2.8 WSW 30 50 16 27 1020.2 1020.2 0.0
01/01:30pm 11.0 4.0 4.2 63 3.1 WSW 30 46 16 25 1020.2 1020.2 0.0
01/01:00pm 11.5 5.0 4.7 63 3.1 WSW 28 46 15 25 1020.1 1020.1 0.0
01/12:30pm 11.3 4.6 3.8 60 3.3 WSW 28 46 15 25 1020.0 1020.0 0.0
01/12:00pm 11.2 4.7 4.7 64 2.9 WSW 28 48 15 26 1019.8 1019.8 0.0
01/11:30am 11.2 2.5 4.2 62 3.1 SW 39 61 21 33 1019.9 1019.9 0.0
01/11:00am 11.1 2.9 4.8 65 2.9 SW 37 61 20 33 1019.5 1019.5 0.0
01/10:35am 11.1 2.5 4.6 64 2.9 SW 39 57 21 31 1019.7 1019.7 0.0
01/10:30am 10.9 1.7 3.7 61 3.2 SW 41 57 22 31 1019.6 1019.6 0.0
01/10:00am 11.3 3.1 4.5 63 3.1 SW 37 61 20 33 1019.2 1019.2 0.0
01/09:35am 11.0 3.1 4.5 64 2.9 SW 35 63 19 34 1019.0 1019.0 0.0
01/09:30am 10.8 3.0 4.9 67 2.7 SW 35 50 19 27 1019.1 1019.1 0.0
01/09:16am 10.3 2.5 5.1 70 2.4 SW 35 56 19 30 1018.9 1018.9 0.0
01/09:00am 10.5 -0.7 4.2 65 2.8 SW 52 69 28 37 1018.8 1018.8 21.4
01/08:45am 10.8 -0.2 4.9 67 2.7 SW 52 74 28 40 1018.4 1018.4 21.4
01/08:30am 10.9 0.3 3.0 58 3.4 SW 48 65 26 35 1018.1 1018.1 21.4
01/08:00am 10.6 2.4 4.9 68 2.6 SW 37 56 20 30 1017.6 1017.7 21.4
01/07:37am 10.1 0.3 3.6 64 2.9 SW 44 63 24 34 1017.3 1017.4 21.4
01/07:30am 10.3 0.3 4.2 66 2.7 SW 46 61 25 33 1017.2 1017.3 21.4
01/07:05am 10.5 1.0 5.1 69 2.5 SW 44 63 24 34 1016.7 1016.8 21.4
01/07:00am 10.4 -0.2 3.2 61 3.1 SW 48 63 26 34 1016.8 1016.9 21.4
01/06:39am 10.1 0.1 4.3 67 2.6 SW 46 65 25 35 1016.5 1016.6 21.4
01/06:30am 10.1 -0.8 3.8 65 2.8 SW 50 63 27 34 1016.3 1016.4 21.4
01/06:00am 9.8 2.4 4.8 71 2.2 SW 33 54 18 29 1015.7 1015.8 21.4
01/05:30am 9.8 1.4 3.5 65 2.8 WSW 37 59 20 32 1015.0 1015.1 21.4
01/05:27am 10.0 2.1 4.2 67 2.6 SW 35 54 19 29 1015.0 1015.1 21.4
01/05:01am 10.0 -2.2 3.7 65 2.8 SW 57 76 31 41 1014.5 1014.6 21.4
01/05:00am 9.8 -2.9 2.9 62 3.0 SW 59 76 32 41 1014.5 1014.6 21.4
01/04:31am 10.2 -1.2 4.8 69 2.4 SW 54 72 29 39 1013.7 1013.8 21.4
01/04:30am 10.1 -1.9 3.8 65 2.8 SW 56 72 30 39 1013.7 1013.8 21.4
01/04:06am 9.9 -0.1 4.3 68 2.5 SW 46 65 25 35 1013.1 1013.2 21.4
01/04:00am 9.9 -0.4 4.9 71 2.3 SW 48 61 26 33 1013.2 1013.3 21.4
01/03:30am 8.7 -0.9 4.3 74 1.9 SSW 44 57 24 31 1012.8 1012.9 21.4
01/03:28am 8.5 -1.0 3.9 73 2.0 SSW 43 52 23 28 1012.8 1012.9 21.4
01/03:00am 9.6 -2.3 4.4 70 2.3 SW 56 78 30 42 1012.2 1012.3 21.4
01/02:30am 9.7 -3.9 4.3 69 2.4 SW 65 85 35 46 1011.8 1011.9 21.4
01/02:12am 9.2 -2.7 4.2 71 2.2 SW 56 74 30 40 1011.2 1011.3 21.4
01/02:07am 8.0 -0.2 4.9 81 1.4 SW 37 56 20 30 1011.5 1011.6 21.4
01/02:05am 7.3 -0.6 4.3 81 1.3 SW 35 52 19 28 1011.5 1011.6 21.4
01/02:00am 6.7 -5.5 2.8 76 1.6 SW 56 76 30 41 1011.8 1011.9 20.2
01/01:30am 9.5 -1.4 3.7 67 2.5 SW 50 70 27 38 1010.7 1010.8 18.8
01/01:15am 9.4 -2.2 4.0 69 2.4 SW 54 72 29 39 1010.8 1010.9 18.8
01/01:00am 9.3 -2.9 3.9 69 2.4 SW 57 72 31 39 1010.5 1010.6 18.8
01/12:30am 9.1 -3.1 3.5 68 2.4 SW 57 72 31 39 1010.2 1010.3 18.8
01/12:00am 9.2 -4.2 3.2 66 2.6 SW 63 82 34 44 1009.4 1009.4 18.8
 
Date/Time
EST
Temp
°C
App
Temp
°C
Dew
Point
Rel
Hum
%
Delta-T
°C
Wind Press
QNH
hPa
Press
MSL
hPa
Rain
since 9 am
mm
Dir
 
Spd
km/h
Gust
km/h
Spd
kts
Gust
kts
30/11:57pm 9.1 -4.3 3.5 68 2.4 SW 63 82 34 44 1009.4 1009.4 18.8
30/11:52pm 9.1 -5.4 3.5 68 2.4 SW 69 82 37 44 1009.3 1009.3 18.8
30/11:40pm 9.3 -0.8 3.9 69 2.4 SW 46 67 25 36 1009.1 1009.1 18.8
30/11:35pm 8.8 -4.9 3.8 71 2.2 SW 65 72 35 39 1009.1 1009.1 18.8
30/11:30pm 8.6 -0.7 5.0 78 1.6 SW 43 67 23 36 1008.9 1008.9 18.8
30/11:01pm 7.3 -4.5 3.0 74 1.8 SW 54 78 29 42 1008.9 1008.9 18.6
30/11:00pm 7.9 -3.7 3.9 76 1.7 SW 54 69 29 37 1008.9 1008.9 18.6
30/10:47pm 8.0 -2.1 3.8 75 1.8 SW 46 61 25 33 1008.6 1008.6 18.6
30/10:30pm 7.3 -7.1 4.3 81 1.3 SW 69 80 37 43 1008.3 1008.3 18.6
30/10:28pm 7.4 -7.2 4.2 80 1.4 SW 70 80 38 43 1008.1 1008.1 18.6
30/10:26pm 8.0 0.7 4.6 79 1.5 WSW 32 78 17 42 1008.1 1008.1 18.6
30/10:06pm 7.9 0.0 4.3 78 1.6 SW 35 54 19 29 1008.1 1008.1 18.6
30/10:00pm 7.7 -1.4 4.1 78 1.6 SW 41 56 22 30 1007.9 1007.9 18.6
30/09:35pm 7.0 -2.1 4.0 81 1.3 SW 41 59 22 32 1007.5 1007.5 18.6
30/09:30pm 7.2 -2.7 4.9 85 1.0 SW 46 61 25 33 1007.3 1007.3 18.6
30/09:17pm 6.9 -3.0 4.7 86 1.0 SW 46 69 25 37 1007.2 1007.2 18.6
30/09:07pm 6.5 -3.5 4.3 86 1.0 W 46 69 25 37 1007.0 1007.0 18.0
30/09:00pm 6.8 -4.7 4.5 85 1.0 SW 54 76 29 41 1007.1 1007.1 17.2
30/08:53pm 7.7 -3.4 4.3 79 1.5 SW 52 72 28 39 1006.5 1006.5 16.4
30/08:30pm 9.5 2.4 3.7 67 2.5 WSW 30 52 16 28 1006.1 1006.1 16.2
30/08:00pm 9.4 1.5 2.3 61 3.0 WSW 33 56 18 30 1005.6 1005.7 16.2
30/07:30pm 8.8 -0.2 4.4 74 1.9 WSW 41 67 22 36 1005.0 1005.1 16.2
30/07:00pm 10.9 3.0 2.0 54 3.8 WSW 33 67 18 36 1004.1 1004.2 15.4
30/06:30pm 10.8 2.9 4.3 64 2.9 WSW 35 65 19 35 1003.5 1003.6 15.4
30/06:00pm 9.7 0.8 5.3 74 2.0 WSW 41 80 22 43 1002.8 1002.9 15.4
30/05:30pm 9.8 0.7 4.0 67 2.6 WSW 41 69 22 37 1002.3 1002.4 15.4
30/05:27pm 9.3 -0.4 3.1 65 2.7 WSW 43 69 23 37 1002.3 1002.4 15.4
30/05:12pm 8.5 -5.1 4.1 74 1.9 SW 65 91 35 49 1001.9 1002.0 15.4
30/05:11pm 8.9 -0.2 3.9 71 2.2 W 41 91 22 49 1001.8 1001.9 15.4
30/05:00pm 10.1 0.7 4.7 69 2.4 W 43 69 23 37 1001.6 1001.7 15.4
30/04:30pm 8.5 -0.5 4.7 77 1.7 WSW 41 85 22 46 1000.8 1000.9 14.4
30/04:00pm 10.6 2.1 5.2 69 2.5 WSW 39 76 21 41 1000.1 1000.1 13.4
30/03:30pm 10.0 0.6 4.4 68 2.5 W 43 67 23 36 999.8 999.8 13.4
30/03:00pm 9.5 0.2 7.6 88 0.9 WSW 46 83 25 45 998.6 998.6 12.6
30/02:30pm 10.3 1.6 7.9 85 1.2 W 43 67 23 36 998.3 998.3 11.2
30/02:01pm 10.4 2.7 8.7 89 0.8 W 39 57 21 31 998.1 998.1 10.6
30/02:00pm 10.4 2.7 8.7 89 0.8 W 39 54 21 29 998.1 998.1 10.6
30/01:31pm 11.6 3.7 9.5 87 1.1 WNW 41 59 22 32 997.8 997.8 8.4
30/01:30pm 11.8 4.0 9.7 87 1.1 WNW 41 54 22 29 997.8 997.8 8.4
30/01:00pm 11.9 4.1 9.6 86 1.2 W 41 56 22 30 997.6 997.6 8.4
30/12:30pm 11.0 2.8 9.8 92 0.6 W 43 67 23 36 998.1 998.1 8.4
30/12:26pm 10.8 1.2 9.6 92 0.6 W 50 69 27 37 998.2 998.2 8.4
30/12:08pm 11.4 1.3 10.3 93 0.6 WNW 54 70 29 38 997.9 997.9 7.4
30/12:00pm 11.5 1.0 10.4 93 0.6 WNW 56 70 30 38 998.2 998.2 7.2
30/11:32am 12.3 4.9 11.2 93 0.6 WNW 41 59 22 32 998.7 998.7 4.4
30/11:30am 12.3 4.9 11.2 93 0.6 WNW 41 61 22 33 998.6 998.6 4.2
30/11:21am 12.0 2.7 10.7 92 0.7 WNW 50 69 27 37 998.6 998.6 3.6
30/11:12am 11.6 1.4 10.2 91 0.7 WNW 54 70 29 38 998.6 998.6 2.8
30/11:01am 12.5 2.6 11.1 91 0.7 NW 54 76 29 41 999.1 999.1 1.6
30/11:00am 12.5 2.6 11.1 91 0.7 NW 54 76 29 41 999.1 999.1 1.6
30/10:53am 12.9 3.5 11.5 91 0.7 NNW 52 70 28 38 999.2 999.2 1.0
30/10:30am 13.0 3.6 11.4 90 0.9 NNW 52 69 28 37 999.5 999.5 0.4
30/10:06am 13.2 3.4 11.4 89 1.0 NNW 54 72 29 39 999.9 999.9 0.0
30/10:02am 13.3 4.3 11.5 89 1.0 NW 50 70 27 38 1000.0 1000.0 0.0
30/10:00am 13.3 4.6 11.4 88 1.0 NW 48 65 26 35 1000.1 1000.1 0.0
30/09:45am 13.6 4.5 11.3 86 1.2 NNW 50 69 27 37 1000.4 1000.5 0.0
30/09:30am 13.8 5.2 11.5 86 1.2 NW 48 67 26 36 1000.7 1000.8 0.0
30/09:22am 13.6 5.0 11.5 87 1.1 NW 48 67 26 36 1000.9 1001.0 0.0
30/09:00am 13.4 3.6 11.5 88 1.0 NNW 54 69 29 37 1001.0 1001.1 0.0
30/08:32am 13.4 4.7 11.3 87 1.1 NNW 48 67 26 36 1001.3 1001.4 0.0
30/08:30am 13.4 4.7 11.3 87 1.1 NNW 48 65 26 35 1001.4 1001.5 0.0
30/08:00am 13.3 4.5 11.0 86 1.2 NNW 48 61 26 33 1001.9 1002.0 0.0
30/07:30am 13.0 5.1 10.9 87 1.1 NNW 43 56 23 30 1002.3 1002.4 0.0
30/07:00am 12.8 4.2 10.3 85 1.3 NNW 46 59 25 32 1002.8 1002.9 0.0
30/06:30am 12.8 4.2 10.2 84 1.3 NNW 46 63 25 34 1003.1 1003.2 0.0
30/06:00am 12.8 3.8 10.2 84 1.4 NNW 48 57 26 31 1003.4 1003.5 0.0
30/05:30am 12.6 3.5 10.0 84 1.3 NNW 48 59 26 32 1003.3 1003.4 0.0
30/05:00am 12.8 4.7 10.0 83 1.5 NNW 43 61 23 33 1003.7 1003.8 0.0
30/04:56am 12.8 4.7 10.2 84 1.3 NNW 43 61 23 33 1003.8 1003.9 0.0
30/04:30am 12.6 4.3 10.1 85 1.3 NNW 44 57 24 31 1003.9 1004.0 0.0
30/04:00am 12.5 4.8 10.0 85 1.3 NNW 41 50 22 27 1004.3 1004.4 0.0
30/03:30am 12.5 5.5 9.9 84 1.3 NNW 37 46 20 25 1004.5 1004.6 0.0
30/03:00am 12.5 6.3 9.9 84 1.3 NNW 33 43 18 23 1004.9 1005.0 0.0
30/02:30am 12.6 5.6 10.0 84 1.3 NNW 37 43 20 23 1005.6 1005.7 0.0
30/02:15am 12.7 6.6 9.7 82 1.5 NNW 32 50 17 27 1005.9 1005.9 0.0
30/02:00am 12.7 6.0 9.5 81 1.6 NNW 35 50 19 27 1006.0 1006.0 0.0
30/01:30am 12.8 4.9 9.3 79 1.8 NW 41 50 22 27 1006.6 1006.6 0.0
30/01:00am 12.7 6.5 9.5 81 1.6 NW 32 44 17 24 1007.1 1007.1 0.0
30/12:30am 12.6 6.1 9.1 79 1.8 NW 33 44 18 24 1007.5 1007.5 0.0
30/12:00am 12.6 6.3 8.9 78 1.9 NW 32 46 17 25 1008.0 1008.0 0.0
 
Date/Time
EST
Temp
°C
App
Temp
°C
Dew
Point
Rel
Hum
%
Delta-T
°C
Wind Press
QNH
hPa
Press
MSL
hPa
Rain
since 9 am
mm
Dir
 
Spd
km/h
Gust
km/h
Spd
kts
Gust
kts
29/11:30pm 13.2 5.2 8.9 75 2.2 WNW 41 56 22 30 1008.6 1008.6 0.0
29/11:00pm 13.2 6.1 9.5 78 1.9 WNW 37 52 20 28 1008.8 1008.8 0.0
29/10:30pm 13.2 5.7 9.3 77 2.0 WNW 39 52 21 28 1009.0 1009.0 0.0
29/10:00pm 13.1 5.2 9.4 78 1.9 WNW 41 52 22 28 1009.1 1009.1 0.0
29/09:30pm 13.2 6.9 9.8 80 1.8 WNW 33 46 18 25 1009.1 1009.1 0.0
29/09:00pm 13.1 6.9 10.1 82 1.6 WNW 33 44 18 24 1009.1 1009.1 0.0
29/08:30pm 13.1 6.1 9.9 81 1.7 WNW 37 48 20 26 1009.0 1009.0 0.0
29/08:00pm 12.9 7.2 9.9 82 1.5 WNW 30 41 16 22 1008.8 1008.8 0.0
29/07:30pm 12.9 7.2 9.9 82 1.5 NW 30 35 16 19 1008.9 1008.9 0.0
29/07:00pm 13.0 8.0 9.6 80 1.7 WNW 26 35 14 19 1008.7 1008.7 0.0
29/06:30pm 13.1 7.7 9.4 78 1.9 NW 28 39 15 21 1008.6 1008.6 0.0
29/06:00pm 13.1 6.8 8.8 75 2.2 NW 32 43 17 23 1008.4 1008.4 0.0
29/05:30pm 13.1 5.1 7.3 68 2.8 WNW 39 50 21 27 1008.6 1008.6 0.0
29/05:00pm 13.7 5.1 8.1 69 2.8 WNW 43 54 23 29 1008.6 1008.6 0.0
29/04:30pm 13.6 5.6 8.9 73 2.4 NW 41 52 22 28 1008.6 1008.6 0.0
29/04:00pm 13.5 6.2 8.8 73 2.4 NW 37 52 20 28 1008.8 1008.8 0.0
29/03:30pm 14.4 8.2 9.4 72 2.6 WNW 32 43 17 23 1008.8 1008.8 0.0
29/03:00pm 14.0 6.6 8.4 69 2.8 NW 37 50 20 27 1008.8 1008.8 0.0
29/02:30pm 14.3 8.5 7.8 65 3.2 WNW 28 39 15 21 1009.0 1009.0 0.0
29/02:00pm 14.5 8.7 9.3 71 2.7 WNW 30 39 16 21 1009.3 1009.3 0.0
29/01:30pm 14.3 7.9 9.3 72 2.6 WNW 33 43 18 23 1009.6 1009.6 0.0
29/01:00pm 14.3 8.1 9.3 72 2.6 WNW 32 41 17 22 1009.6 1009.6 0.0
29/12:30pm 13.2 6.2 7.0 66 3.0 WNW 33 43 18 23 1009.5 1009.5 0.0
29/12:00pm 14.1 7.4 8.1 67 3.0 WNW 33 43 18 23 1009.5 1009.5 0.0
29/11:30am 13.9 6.4 8.1 68 2.9 WNW 37 46 20 25 1009.5 1009.5 0.0
29/11:00am 13.4 5.9 7.8 69 2.8 WNW 37 48 20 26 1009.4 1009.4 0.0
29/10:30am 14.3 7.8 8.3 67 3.0 WNW 32 41 17 22 1009.3 1009.3 0.0
29/10:00am 13.6 6.3 7.2 65 3.1 WNW 35 44 19 24 1009.3 1009.3 0.0
29/09:30am 13.6 7.0 7.8 68 2.9 W 32 41 17 22 1009.2 1009.2 0.0
29/09:02am 12.6 6.1 8.1 74 2.2 W 32 50 17 27 1009.1 1009.1 0.0
29/09:00am 12.3 5.5 7.8 74 2.2 W 33 50 18 27 1009.1 1009.1 1.2
29/08:30am 12.6 6.6 6.9 68 2.8 W 28 39 15 21 1008.8 1008.8 1.2
29/08:00am 12.6 4.7 6.4 66 3.0 W 37 52 20 28 1008.4 1008.4 1.2
29/07:42am 12.2 5.9 7.5 73 2.3 W 30 50 16 27 1008.0 1008.0 1.2
29/07:30am 12.3 5.7 7.6 73 2.3 W 32 43 17 23 1007.9 1007.9 1.2
29/07:00am 12.4 5.3 6.5 67 2.8 W 33 48 18 26 1007.6 1007.6 1.2
29/06:30am 12.3 5.6 7.2 71 2.5 W 32 46 17 25 1007.0 1007.0 1.2
29/06:00am 12.1 5.1 6.8 70 2.6 W 33 52 18 28 1006.5 1006.5 1.2
29/05:30am 12.3 5.1 9.0 80 1.7 W 37 48 20 26 1005.9 1005.9 1.2
29/05:00am 12.3 5.3 8.6 78 1.9 W 35 52 19 28 1005.2 1005.3 1.2
29/04:50am 12.1 5.5 8.6 79 1.7 W 33 52 18 28 1005.0 1005.1 1.2
29/04:30am 12.2 5.6 8.7 79 1.7 W 33 48 18 26 1004.8 1004.9 1.2
29/04:02am 12.1 5.6 8.8 80 1.7 W 33 56 18 30 1004.2 1004.3 1.2
29/04:00am 12.1 5.6 8.9 81 1.6 W 33 50 18 27 1004.2 1004.3 1.2
29/03:30am 12.2 4.2 9.0 81 1.6 W 41 56 22 30 1003.8 1003.9 1.2
29/03:00am 12.6 4.0 8.9 78 1.9 W 44 63 24 34 1003.2 1003.3 1.2
29/02:30am 12.6 2.2 9.4 81 1.6 W 54 76 29 41 1002.6 1002.7 1.2
29/02:06am 12.1 2.2 9.7 85 1.2 WNW 52 72 28 39 1002.6 1002.7 1.2
29/02:00am 12.1 1.9 10.2 88 1.0 WNW 54 69 29 37 1002.6 1002.7 1.2
29/01:47am 11.9 0.3 9.6 86 1.2 WNW 61 80 33 43 1002.1 1002.2 1.0
29/01:45am 12.0 -0.4 9.7 86 1.2 WNW 65 80 35 43 1002.2 1002.3 1.0
29/01:39am 12.7 4.2 10.6 87 1.1 WNW 46 69 25 37 1002.5 1002.6 0.6
29/01:30am 13.1 3.8 10.5 84 1.4 NW 50 61 27 33 1002.3 1002.4 0.0
29/01:00am 13.2 5.1 10.6 84 1.4 NW 44 57 24 31 1002.8 1002.9 0.0
29/12:30am 13.2 5.1 10.0 81 1.7 WNW 43 57 23 31 1003.1 1003.2 0.0
29/12:00am 13.0 6.4 10.0 82 1.6 WNW 35 46 19 25 1003.0 1003.1 0.0
 
Date/Time
EST
Temp
°C
App
Temp
°C
Dew
Point
Rel
Hum
%
Delta-T
°C
Wind Press
QNH
hPa
Press
MSL
hPa
Rain
since 9 am
mm
Dir
 
Spd
km/h
Gust
km/h
Spd
kts
Gust
kts
28/11:30pm 13.0 4.9 10.0 82 1.5 WNW 43 54 23 29 1002.8 1002.9 0.0
28/11:00pm 12.8 6.6 10.0 83 1.5 WNW 33 46 18 25 1002.7 1002.8 0.0
28/10:30pm 12.8 5.7 9.6 81 1.6 WNW 37 50 20 27 1002.8 1002.9 0.0

Other Formats:

Comma delimited format used in spreadsheet applications
http://www.bom.gov.au/fwo/IDT60801/IDT60801.95954.axf

JavaScript Object Notation format (JSON) in row-major order
http://www.bom.gov.au/fwo/IDT60801/IDT60801.95954.json